createdAt,value
2022-10-11T00:01:49.479Z,11.68
2022-10-11T00:06:51.336Z,11.44
2022-10-11T00:11:56.254Z,11.34
2022-10-11T00:16:57.917Z,11.20
2022-10-11T00:21:59.860Z,11.08
2022-10-11T00:27:01.579Z,11.01
2022-10-11T00:32:03.540Z,10.91
2022-10-11T00:37:05.206Z,10.79
2022-10-11T00:42:14.048Z,10.81
2022-10-11T00:47:22.622Z,10.79
2022-10-11T00:52:40.380Z,10.68
2022-10-11T00:57:48.200Z,10.54
2022-10-11T01:02:50.666Z,10.47
2022-10-11T01:07:54.002Z,10.34
2022-10-11T01:13:36.313Z,10.36
2022-10-11T01:19:11.125Z,10.23
2022-10-11T01:25:17.562Z,10.24
2022-10-11T01:30:29.203Z,10.13
2022-10-11T01:35:53.929Z,10.04
2022-10-11T01:41:06.479Z,9.89
2022-10-11T01:46:10.186Z,9.91
2022-10-11T01:51:11.878Z,9.82
2022-10-11T01:56:50.324Z,9.74
2022-10-11T02:02:21.161Z,9.71
2022-10-11T02:07:50.457Z,9.52
2022-10-11T02:13:12.288Z,9.45
2022-10-11T02:18:20.750Z,9.38
2022-10-11T02:23:38.996Z,9.28
2022-10-11T02:28:46.024Z,9.14
2022-10-11T02:34:14.467Z,9.02
2022-10-11T02:39:51.705Z,9.07
2022-10-11T02:45:05.624Z,8.80
2022-10-11T02:50:08.411Z,8.90
2022-10-11T02:55:11.693Z,8.81
2022-10-11T03:00:15.301Z,8.78
2022-10-11T03:05:17.132Z,8.47
2022-10-11T03:10:18.879Z,8.76
2022-10-11T03:15:20.508Z,8.77
2022-10-11T03:20:23.743Z,8.71
2022-10-11T03:25:25.396Z,8.73
2022-10-11T03:30:27.233Z,8.83
2022-10-11T03:35:28.860Z,8.86
2022-10-11T03:40:30.514Z,8.87
2022-10-11T03:45:32.169Z,8.99
2022-10-11T03:50:33.953Z,8.97
2022-10-11T03:55:40.082Z,8.80
2022-10-11T04:00:41.721Z,8.79
2022-10-11T04:05:43.433Z,8.76
2022-10-11T04:10:45.077Z,8.65
2022-10-11T04:15:47.295Z,8.68
2022-10-11T04:20:48.927Z,8.70
2022-10-11T04:25:50.550Z,8.57
2022-10-11T04:30:52.545Z,8.52
2022-10-11T04:35:56.130Z,8.45
2022-10-11T04:41:12.827Z,8.36
2022-10-11T04:46:14.499Z,8.44
2022-10-11T04:51:16.711Z,8.38
2022-10-11T04:56:18.750Z,8.45
2022-10-11T05:01:21.616Z,8.34
2022-10-11T05:06:23.253Z,8.37
2022-10-11T05:11:24.952Z,8.29
2022-10-11T05:16:26.645Z,8.27
2022-10-11T05:21:30.316Z,8.32
2022-10-11T05:26:32.025Z,8.25
2022-10-11T05:31:34.049Z,8.24
2022-10-11T05:36:35.693Z,8.28
2022-10-11T05:41:37.341Z,8.27
2022-10-11T05:46:39.609Z,8.26
2022-10-11T05:51:41.285Z,8.23
2022-10-11T05:56:43.099Z,8.29
2022-10-11T06:01:44.788Z,8.31
2022-10-11T06:06:46.446Z,8.35
2022-10-11T06:11:48.232Z,8.44
2022-10-11T06:16:49.883Z,8.49
2022-10-11T06:21:52.177Z,8.40
2022-10-11T06:26:54.493Z,8.60
2022-10-11T06:31:56.270Z,8.64
2022-10-11T06:36:57.933Z,8.75
2022-10-11T06:41:59.619Z,8.76
2022-10-11T06:47:01.348Z,8.87
2022-10-11T06:52:03.129Z,8.94
2022-10-11T06:57:04.765Z,9.08
2022-10-11T07:02:06.906Z,9.36
2022-10-11T07:07:08.580Z,9.68
2022-10-11T07:12:10.315Z,10.40
2022-10-11T07:17:11.985Z,10.55
2022-10-11T07:22:13.649Z,10.73
2022-10-11T07:27:15.292Z,11.01
2022-10-11T07:32:16.957Z,11.50
2022-10-11T07:37:18.615Z,12.25
2022-10-11T07:42:21.918Z,12.25
2022-10-11T07:47:23.697Z,12.27
2022-10-11T07:52:25.361Z,12.94
2022-10-11T07:57:27.045Z,13.18
2022-10-11T08:02:28.681Z,14.15
2022-10-11T08:07:30.372Z,14.82
2022-10-11T08:12:32.695Z,15.31
2022-10-11T08:17:34.601Z,15.70
2022-10-11T08:22:36.346Z,15.64
2022-10-11T08:27:38.083Z,16.52
2022-10-11T08:32:39.770Z,17.35
2022-10-11T08:37:41.475Z,17.85
2022-10-11T08:43:02.966Z,17.76
2022-10-11T08:48:45.448Z,17.88
2022-10-11T08:54:45.308Z,17.55
2022-10-11T08:59:57.905Z,17.49
2022-10-11T09:05:00.144Z,17.84
2022-10-11T09:10:54.807Z,18.23
2022-10-11T09:16:30.022Z,19.24
2022-10-11T09:22:07.999Z,19.72
2022-10-11T09:27:50.385Z,19.14
2022-10-11T09:33:18.018Z,19.42
2022-10-11T09:39:16.795Z,20.20
2022-10-11T09:44:29.936Z,18.39
2022-10-11T09:49:44.942Z,16.97
2022-10-11T09:55:01.341Z,16.73
2022-10-11T10:00:11.958Z,16.54
2022-10-11T10:05:19.465Z,16.70
2022-10-11T10:10:39.676Z,16.72
2022-10-11T10:15:48.502Z,16.70
2022-10-11T10:21:02.043Z,16.87
2022-10-11T10:26:31.372Z,16.37
2022-10-11T10:32:13.302Z,16.11
2022-10-11T10:37:33.619Z,16.21
2022-10-11T10:42:35.609Z,16.37
2022-10-11T10:48:18.277Z,16.23
2022-10-11T10:53:38.944Z,15.77
2022-10-11T10:59:25.058Z,16.03
2022-10-11T11:04:34.086Z,16.02
2022-10-11T11:10:11.698Z,15.49
2022-10-11T11:15:37.731Z,14.83
2022-10-11T11:21:19.063Z,15.06
2022-10-11T11:26:55.725Z,14.98
2022-10-11T11:32:46.563Z,15.20
2022-10-11T11:37:59.279Z,15.42
2022-10-11T11:43:28.061Z,15.33
2022-10-11T11:48:29.946Z,15.53
2022-10-11T11:53:46.501Z,15.71
2022-10-11T11:59:19.501Z,15.73
2022-10-11T12:04:31.444Z,15.51
2022-10-11T12:09:36.810Z,15.34
2022-10-11T12:14:42.770Z,15.07
2022-10-11T12:20:41.230Z,14.80
2022-10-11T12:25:45.357Z,14.76
2022-10-11T12:30:47.029Z,14.73
2022-10-11T12:35:54.854Z,14.68
2022-10-11T12:41:20.233Z,14.71
2022-10-11T12:46:33.726Z,14.65
2022-10-11T12:52:02.542Z,14.82
2022-10-11T12:58:05.894Z,14.78
2022-10-11T13:03:33.588Z,14.76
2022-10-11T13:08:43.214Z,14.76
2022-10-11T13:13:58.729Z,14.73
2022-10-11T13:19:00.490Z,14.72
2022-10-11T13:24:18.320Z,14.66
2022-10-11T13:29:40.480Z,14.59
2022-10-11T13:34:49.037Z,14.63
2022-10-11T13:39:56.711Z,14.60
2022-10-11T13:45:00.591Z,14.61
2022-10-11T13:50:24.077Z,14.67
2022-10-11T13:55:47.322Z,14.59
2022-10-11T14:01:05.595Z,14.74
2022-10-11T14:06:08.166Z,14.77
2022-10-11T14:11:13.251Z,14.72
2022-10-11T14:16:21.640Z,14.69
2022-10-11T14:21:46.925Z,14.60
2022-10-11T14:26:53.625Z,14.56
2022-10-11T14:32:06.375Z,14.49
2022-10-11T14:37:10.339Z,14.39
2022-10-11T14:42:12.486Z,14.36
2022-10-11T14:47:17.155Z,14.26
2022-10-11T14:52:18.926Z,14.10
2022-10-11T14:57:20.682Z,14.02
2022-10-11T15:02:22.330Z,13.96
2022-10-11T15:07:23.984Z,13.86
2022-10-11T15:12:25.667Z,13.77
2022-10-11T15:17:27.326Z,13.68
2022-10-11T15:22:28.979Z,13.62
2022-10-11T15:27:30.617Z,13.59
2022-10-11T15:32:32.304Z,13.49
2022-10-11T15:37:37.333Z,13.30
2022-10-11T15:42:39.352Z,13.28
2022-10-11T15:47:41.031Z,12.96
2022-10-11T15:52:42.695Z,13.11
2022-10-11T15:57:44.720Z,13.08
2022-10-11T16:02:46.491Z,12.96
2022-10-11T16:07:48.693Z,12.90
2022-10-11T16:12:50.549Z,12.79
2022-10-11T16:17:52.301Z,12.71
2022-10-11T16:22:55.206Z,12.64
2022-10-11T16:27:56.968Z,12.61
2022-10-11T16:32:58.653Z,12.58
2022-10-11T16:38:01.465Z,12.47
2022-10-11T16:43:07.452Z,12.48
2022-10-11T16:48:10.946Z,12.36
2022-10-11T16:53:15.493Z,12.33
2022-10-11T16:58:17.183Z,12.19
2022-10-11T17:03:18.829Z,12.12
2022-10-11T17:08:20.481Z,12.06
2022-10-11T17:13:23.430Z,12.06
2022-10-11T17:18:25.300Z,12.04
2022-10-11T17:23:26.930Z,12.08
2022-10-11T17:28:30.963Z,12.02
2022-10-11T17:33:33.761Z,11.95
2022-10-11T17:38:35.413Z,11.86
2022-10-11T17:43:37.545Z,11.85
2022-10-11T17:48:39.887Z,11.73
2022-10-11T17:53:42.928Z,11.77
2022-10-11T17:58:45.364Z,11.75
2022-10-11T18:03:58.650Z,11.71
2022-10-11T18:09:03.749Z,11.73
2022-10-11T18:14:05.759Z,11.67
2022-10-11T18:19:12.756Z,11.65
2022-10-11T18:24:16.907Z,11.57
2022-10-11T18:29:18.583Z,11.52
2022-10-11T18:34:20.245Z,11.43
2022-10-11T18:39:22.099Z,11.32
2022-10-11T18:44:23.778Z,11.35
2022-10-11T18:49:25.684Z,11.28
2022-10-11T18:54:27.518Z,11.21
2022-10-11T18:59:29.212Z,11.12
2022-10-11T19:04:34.124Z,11.04
2022-10-11T19:09:35.803Z,11.03
2022-10-11T19:14:37.496Z,10.96
2022-10-11T19:19:39.470Z,10.97
2022-10-11T19:24:43.566Z,10.91
2022-10-11T19:29:45.318Z,10.82
2022-10-11T19:34:46.982Z,10.66
2022-10-11T19:39:48.620Z,10.57
2022-10-11T19:44:50.254Z,10.43
2022-10-11T19:49:51.893Z,10.40
2022-10-11T19:54:53.611Z,10.40
2022-10-11T19:59:55.348Z,10.44
2022-10-11T20:04:56.994Z,10.32
2022-10-11T20:09:58.634Z,10.45
2022-10-11T20:15:00.261Z,10.32
2022-10-11T20:20:01.914Z,10.24
2022-10-11T20:25:03.811Z,10.08
2022-10-11T20:30:06.082Z,10.06
2022-10-11T20:35:09.377Z,10.05
2022-10-11T20:40:12.357Z,10.10
2022-10-11T20:45:14.038Z,10.01
2022-10-11T20:50:19.523Z,9.90
2022-10-11T20:55:23.857Z,9.88
2022-10-11T21:00:25.535Z,9.83
2022-10-11T21:05:27.201Z,9.73
2022-10-11T21:10:28.989Z,9.68
2022-10-11T21:15:32.247Z,9.68
2022-10-11T21:20:39.630Z,9.65
2022-10-11T21:25:41.541Z,9.62
2022-10-11T21:30:43.202Z,9.49
2022-10-11T21:35:44.897Z,9.48
2022-10-11T21:40:47.335Z,9.45
2022-10-11T21:45:49.013Z,9.32
2022-10-11T21:50:55.087Z,9.25
2022-10-11T21:55:59.262Z,9.13
2022-10-11T22:01:00.966Z,9.14
2022-10-11T22:06:04.419Z,9.00
2022-10-11T22:11:07.462Z,9.01
2022-10-11T22:16:13.479Z,8.98
2022-10-11T22:21:23.253Z,8.95
2022-10-11T22:26:31.282Z,8.88
2022-10-11T22:31:34.525Z,8.92
2022-10-11T22:36:36.209Z,8.81
2022-10-11T22:41:38.134Z,8.82
2022-10-11T22:46:39.781Z,8.74
2022-10-11T22:51:41.473Z,8.67
2022-10-11T22:56:43.217Z,8.71
2022-10-11T23:01:44.909Z,8.56
2022-10-11T23:06:47.622Z,8.55
2022-10-11T23:11:49.245Z,8.42
2022-10-11T23:16:52.032Z,8.40
2022-10-11T23:21:53.684Z,8.38
2022-10-11T23:26:55.412Z,8.18
2022-10-11T23:31:57.074Z,8.17
2022-10-11T23:36:58.739Z,8.14
2022-10-11T23:42:00.365Z,8.18
2022-10-11T23:47:02.116Z,8.03
2022-10-11T23:52:03.763Z,8.11
2022-10-11T23:57:05.424Z,8.05
